sensor_id;sensor_type;location;lat;lon;timestamp;temperature;humidity
23685;DHT22;12020;51.384;6.908;2023-04-06T00:01:35;3.60;99.90
23685;DHT22;12020;51.384;6.908;2023-04-06T00:04:01;3.60;99.90
23685;DHT22;12020;51.384;6.908;2023-04-06T00:06:27;3.60;99.90
23685;DHT22;12020;51.384;6.908;2023-04-06T00:08:53;3.60;99.90
23685;DHT22;12020;51.384;6.908;2023-04-06T00:11:18;3.60;99.90
23685;DHT22;12020;51.384;6.908;2023-04-06T00:13:45;3.60;99.90
23685;DHT22;12020;51.384;6.908;2023-04-06T00:16:10;3.60;99.90
23685;DHT22;12020;51.384;6.908;2023-04-06T00:18:36;3.50;99.90
23685;DHT22;12020;51.384;6.908;2023-04-06T00:21:03;3.50;99.90
23685;DHT22;12020;51.384;6.908;2023-04-06T00:23:29;3.50;99.90
23685;DHT22;12020;51.384;6.908;2023-04-06T00:25:55;3.50;99.90
23685;DHT22;12020;51.384;6.908;2023-04-06T00:28:21;3.50;99.90
23685;DHT22;12020;51.384;6.908;2023-04-06T00:30:51;3.50;99.90
23685;DHT22;12020;51.384;6.908;2023-04-06T00:33:18;3.50;99.90
23685;DHT22;12020;51.384;6.908;2023-04-06T00:35:44;3.50;99.90
23685;DHT22;12020;51.384;6.908;2023-04-06T00:38:11;3.50;99.90
23685;DHT22;12020;51.384;6.908;2023-04-06T00:40:37;3.40;99.90
23685;DHT22;12020;51.384;6.908;2023-04-06T00:43:06;3.30;99.90
23685;DHT22;12020;51.384;6.908;2023-04-06T00:45:33;3.10;99.90
23685;DHT22;12020;51.384;6.908;2023-04-06T00:47:59;3.10;99.90
23685;DHT22;12020;51.384;6.908;2023-04-06T00:50:25;3.00;99.90
23685;DHT22;12020;51.384;6.908;2023-04-06T00:52:52;3.00;99.90
23685;DHT22;12020;51.384;6.908;2023-04-06T00:55:18;2.90;99.90
23685;DHT22;12020;51.384;6.908;2023-04-06T00:57:44;2.90;99.90
23685;DHT22;12020;51.384;6.908;2023-04-06T01:00:10;2.90;99.90
23685;DHT22;12020;51.384;6.908;2023-04-06T01:02:37;2.90;99.90
23685;DHT22;12020;51.384;6.908;2023-04-06T01:05:03;2.90;99.90
23685;DHT22;12020;51.384;6.908;2023-04-06T01:07:29;2.90;99.90
23685;DHT22;12020;51.384;6.908;2023-04-06T01:09:55;2.80;99.90
23685;DHT22;12020;51.384;6.908;2023-04-06T01:12:20;2.80;99.90
23685;DHT22;12020;51.384;6.908;2023-04-06T01:14:46;2.80;99.90
23685;DHT22;12020;51.384;6.908;2023-04-06T01:17:12;2.80;99.90
23685;DHT22;12020;51.384;6.908;2023-04-06T01:19:38;2.90;99.90
23685;DHT22;12020;51.384;6.908;2023-04-06T01:22:05;2.90;99.90
23685;DHT22;12020;51.384;6.908;2023-04-06T01:24:32;2.80;99.90
23685;DHT22;12020;51.384;6.908;2023-04-06T01:26:58;2.80;99.90
23685;DHT22;12020;51.384;6.908;2023-04-06T01:29:24;2.80;99.90
23685;DHT22;12020;51.384;6.908;2023-04-06T01:31:50;2.80;99.90
23685;DHT22;12020;51.384;6.908;2023-04-06T01:34:16;2.80;99.90
23685;DHT22;12020;51.384;6.908;2023-04-06T01:36:41;2.70;99.90
23685;DHT22;12020;51.384;6.908;2023-04-06T01:39:07;2.70;99.90
23685;DHT22;12020;51.384;6.908;2023-04-06T01:41:33;2.70;99.90
23685;DHT22;12020;51.384;6.908;2023-04-06T01:43:59;2.70;99.90
23685;DHT22;12020;51.384;6.908;2023-04-06T01:46:25;2.70;99.90
23685;DHT22;12020;51.384;6.908;2023-04-06T01:48:51;2.60;99.90
23685;DHT22;12020;51.384;6.908;2023-04-06T01:51:17;2.60;99.90
23685;DHT22;12020;51.384;6.908;2023-04-06T01:53:43;2.70;99.90
23685;DHT22;12020;51.384;6.908;2023-04-06T01:56:09;2.60;99.90
23685;DHT22;12020;51.384;6.908;2023-04-06T01:58:34;2.60;99.90
23685;DHT22;12020;51.384;6.908;2023-04-06T02:01:00;2.60;99.90
23685;DHT22;12020;51.384;6.908;2023-04-06T02:03:26;2.60;99.90
23685;DHT22;12020;51.384;6.908;2023-04-06T02:05:52;2.60;99.90
23685;DHT22;12020;51.384;6.908;2023-04-06T02:08:18;2.60;99.90
23685;DHT22;12020;51.384;6.908;2023-04-06T02:10:43;2.60;99.90
23685;DHT22;12020;51.384;6.908;2023-04-06T02:13:09;2.60;99.90
23685;DHT22;12020;51.384;6.908;2023-04-06T02:15:35;2.60;99.90
23685;DHT22;12020;51.384;6.908;2023-04-06T02:18:01;2.60;99.90
23685;DHT22;12020;51.384;6.908;2023-04-06T02:20:26;2.60;99.90
23685;DHT22;12020;51.384;6.908;2023-04-06T02:22:52;2.60;99.90
23685;DHT22;12020;51.384;6.908;2023-04-06T02:25:19;2.60;99.90
23685;DHT22;12020;51.384;6.908;2023-04-06T02:27:44;2.50;99.90
23685;DHT22;12020;51.384;6.908;2023-04-06T02:30:10;2.50;99.90
23685;DHT22;12020;51.384;6.908;2023-04-06T02:32:36;2.50;99.90
23685;DHT22;12020;51.384;6.908;2023-04-06T02:35:02;2.50;99.90
23685;DHT22;12020;51.384;6.908;2023-04-06T02:37:28;2.50;99.90
23685;DHT22;12020;51.384;6.908;2023-04-06T02:39:53;2.50;99.90
23685;DHT22;12020;51.384;6.908;2023-04-06T02:42:19;2.50;99.90
23685;DHT22;12020;51.384;6.908;2023-04-06T02:44:45;2.40;99.90
23685;DHT22;12020;51.384;6.908;2023-04-06T02:47:11;2.40;99.90
23685;DHT22;12020;51.384;6.908;2023-04-06T02:49:37;2.40;99.90
23685;DHT22;12020;51.384;6.908;2023-04-06T02:52:03;2.40;99.90
23685;DHT22;12020;51.384;6.908;2023-04-06T02:54:28;2.40;99.90
23685;DHT22;12020;51.384;6.908;2023-04-06T02:56:54;2.30;99.90
23685;DHT22;12020;51.384;6.908;2023-04-06T02:59:20;2.30;99.90
23685;DHT22;12020;51.384;6.908;2023-04-06T03:01:46;2.30;99.90
23685;DHT22;12020;51.384;6.908;2023-04-06T03:04:11;2.40;99.90
23685;DHT22;12020;51.384;6.908;2023-04-06T03:06:37;2.40;99.90
23685;DHT22;12020;51.384;6.908;2023-04-06T03:09:03;2.30;99.90
23685;DHT22;12020;51.384;6.908;2023-04-06T03:11:29;2.30;99.90
23685;DHT22;12020;51.384;6.908;2023-04-06T03:13:54;2.30;99.90
23685;DHT22;12020;51.384;6.908;2023-04-06T03:16:20;2.30;99.90
23685;DHT22;12020;51.384;6.908;2023-04-06T03:18:46;2.30;99.90
23685;DHT22;12020;51.384;6.908;2023-04-06T03:21:15;2.30;99.90
23685;DHT22;12020;51.384;6.908;2023-04-06T03:23:42;2.30;99.90
23685;DHT22;12020;51.384;6.908;2023-04-06T03:26:07;2.30;99.90
23685;DHT22;12020;51.384;6.908;2023-04-06T03:28:33;2.30;99.90
23685;DHT22;12020;51.384;6.908;2023-04-06T03:30:59;2.30;99.90
23685;DHT22;12020;51.384;6.908;2023-04-06T03:33:25;2.30;99.90
23685;DHT22;12020;51.384;6.908;2023-04-06T03:35:54;2.30;99.90
23685;DHT22;12020;51.384;6.908;2023-04-06T03:38:20;2.30;99.90
23685;DHT22;12020;51.384;6.908;2023-04-06T03:40:46;2.30;99.90
23685;DHT22;12020;51.384;6.908;2023-04-06T03:43:11;2.30;99.90
23685;DHT22;12020;51.384;6.908;2023-04-06T03:45:37;2.30;99.90
23685;DHT22;12020;51.384;6.908;2023-04-06T03:48:03;2.30;99.90
23685;DHT22;12020;51.384;6.908;2023-04-06T03:50:29;2.30;99.90
23685;DHT22;12020;51.384;6.908;2023-04-06T03:52:54;2.30;99.90
23685;DHT22;12020;51.384;6.908;2023-04-06T03:55:20;2.30;99.90
23685;DHT22;12020;51.384;6.908;2023-04-06T03:57:46;2.30;99.90
23685;DHT22;12020;51.384;6.908;2023-04-06T04:00:13;2.40;99.90
23685;DHT22;12020;51.384;6.908;2023-04-06T04:02:39;2.40;99.90
23685;DHT22;12020;51.384;6.908;2023-04-06T04:05:05;2.40;99.90
23685;DHT22;12020;51.384;6.908;2023-04-06T04:07:31;2.30;99.90
23685;DHT22;12020;51.384;6.908;2023-04-06T04:09:57;2.30;99.90
23685;DHT22;12020;51.384;6.908;2023-04-06T04:12:22;2.40;99.90
23685;DHT22;12020;51.384;6.908;2023-04-06T04:14:48;2.30;99.90
23685;DHT22;12020;51.384;6.908;2023-04-06T04:17:14;2.40;99.90
23685;DHT22;12020;51.384;6.908;2023-04-06T04:19:40;2.30;99.90
23685;DHT22;12020;51.384;6.908;2023-04-06T04:22:05;2.30;99.90
23685;DHT22;12020;51.384;6.908;2023-04-06T04:24:32;2.30;99.90
23685;DHT22;12020;51.384;6.908;2023-04-06T04:26:58;2.30;99.90
23685;DHT22;12020;51.384;6.908;2023-04-06T04:29:26;2.30;99.90
23685;DHT22;12020;51.384;6.908;2023-04-06T04:31:52;2.30;99.90
23685;DHT22;12020;51.384;6.908;2023-04-06T04:34:19;2.30;99.90
23685;DHT22;12020;51.384;6.908;2023-04-06T04:36:46;2.20;99.90
23685;DHT22;12020;51.384;6.908;2023-04-06T04:39:12;2.30;99.90
23685;DHT22;12020;51.384;6.908;2023-04-06T04:41:38;2.20;99.90
23685;DHT22;12020;51.384;6.908;2023-04-06T04:44:04;2.20;99.90
23685;DHT22;12020;51.384;6.908;2023-04-06T04:46:30;2.30;99.90
23685;DHT22;12020;51.384;6.908;2023-04-06T04:48:56;2.20;99.90
23685;DHT22;12020;51.384;6.908;2023-04-06T04:51:21;2.20;99.90
23685;DHT22;12020;51.384;6.908;2023-04-06T04:53:47;2.20;99.90
23685;DHT22;12020;51.384;6.908;2023-04-06T04:56:13;2.20;99.90
23685;DHT22;12020;51.384;6.908;2023-04-06T04:58:39;2.30;99.90
23685;DHT22;12020;51.384;6.908;2023-04-06T05:01:05;2.30;99.90
23685;DHT22;12020;51.384;6.908;2023-04-06T05:03:32;2.30;99.90
23685;DHT22;12020;51.384;6.908;2023-04-06T05:05:58;2.30;99.90
23685;DHT22;12020;51.384;6.908;2023-04-06T05:08:24;2.30;99.90
23685;DHT22;12020;51.384;6.908;2023-04-06T05:10:49;2.30;99.90
23685;DHT22;12020;51.384;6.908;2023-04-06T05:13:15;2.30;99.90
23685;DHT22;12020;51.384;6.908;2023-04-06T05:15:41;2.30;99.90
23685;DHT22;12020;51.384;6.908;2023-04-06T05:18:08;2.30;99.90
23685;DHT22;12020;51.384;6.908;2023-04-06T05:20:34;2.40;99.90
23685;DHT22;12020;51.384;6.908;2023-04-06T05:23:01;2.40;99.90
23685;DHT22;12020;51.384;6.908;2023-04-06T05:25:26;2.30;99.90
23685;DHT22;12020;51.384;6.908;2023-04-06T05:27:52;2.40;99.90
23685;DHT22;12020;51.384;6.908;2023-04-06T05:30:18;2.40;99.90
23685;DHT22;12020;51.384;6.908;2023-04-06T05:32:44;2.50;99.90
23685;DHT22;12020;51.384;6.908;2023-04-06T05:35:10;2.50;99.90
23685;DHT22;12020;51.384;6.908;2023-04-06T05:37:38;2.50;99.90
23685;DHT22;12020;51.384;6.908;2023-04-06T05:40:05;2.50;99.90
23685;DHT22;12020;51.384;6.908;2023-04-06T05:42:41;2.60;99.90
23685;DHT22;12020;51.384;6.908;2023-04-06T05:45:09;2.60;99.90
23685;DHT22;12020;51.384;6.908;2023-04-06T05:47:37;2.70;99.90
23685;DHT22;12020;51.384;6.908;2023-04-06T05:50:03;2.80;99.90
23685;DHT22;12020;51.384;6.908;2023-04-06T05:52:28;2.90;99.90
23685;DHT22;12020;51.384;6.908;2023-04-06T05:54:54;3.00;99.90
23685;DHT22;12020;51.384;6.908;2023-04-06T05:57:20;3.10;99.90
23685;DHT22;12020;51.384;6.908;2023-04-06T05:59:48;3.30;99.90
23685;DHT22;12020;51.384;6.908;2023-04-06T06:02:14;3.40;99.90
23685;DHT22;12020;51.384;6.908;2023-04-06T06:04:40;3.60;99.90
23685;DHT22;12020;51.384;6.908;2023-04-06T06:07:05;3.80;99.90
23685;DHT22;12020;51.384;6.908;2023-04-06T06:09:31;4.00;99.90
23685;DHT22;12020;51.384;6.908;2023-04-06T06:11:57;4.00;99.90
23685;DHT22;12020;51.384;6.908;2023-04-06T06:14:22;4.10;99.90
23685;DHT22;12020;51.384;6.908;2023-04-06T06:16:48;4.20;99.90
23685;DHT22;12020;51.384;6.908;2023-04-06T06:19:15;4.20;99.90
23685;DHT22;12020;51.384;6.908;2023-04-06T06:21:40;4.30;99.90
23685;DHT22;12020;51.384;6.908;2023-04-06T06:24:07;4.40;99.90
23685;DHT22;12020;51.384;6.908;2023-04-06T06:26:33;4.40;99.90
23685;DHT22;12020;51.384;6.908;2023-04-06T06:29:00;4.50;99.90
23685;DHT22;12020;51.384;6.908;2023-04-06T06:31:26;4.60;99.90
23685;DHT22;12020;51.384;6.908;2023-04-06T06:33:52;4.70;99.90
23685;DHT22;12020;51.384;6.908;2023-04-06T06:36:18;4.70;99.90
23685;DHT22;12020;51.384;6.908;2023-04-06T06:38:44;4.80;99.90
23685;DHT22;12020;51.384;6.908;2023-04-06T06:41:10;4.90;99.90
23685;DHT22;12020;51.384;6.908;2023-04-06T06:43:36;4.90;99.90
23685;DHT22;12020;51.384;6.908;2023-04-06T06:46:03;5.00;99.90
23685;DHT22;12020;51.384;6.908;2023-04-06T06:48:30;5.10;99.90
23685;DHT22;12020;51.384;6.908;2023-04-06T06:50:56;5.10;99.90
23685;DHT22;12020;51.384;6.908;2023-04-06T06:53:22;5.20;99.90
23685;DHT22;12020;51.384;6.908;2023-04-06T06:55:49;5.30;99.90
23685;DHT22;12020;51.384;6.908;2023-04-06T06:58:17;5.30;99.90
23685;DHT22;12020;51.384;6.908;2023-04-06T07:00:43;5.40;99.90
23685;DHT22;12020;51.384;6.908;2023-04-06T07:03:09;5.50;99.90
23685;DHT22;12020;51.384;6.908;2023-04-06T07:05:35;5.60;99.90
23685;DHT22;12020;51.384;6.908;2023-04-06T07:08:00;5.70;99.90
23685;DHT22;12020;51.384;6.908;2023-04-06T07:10:26;5.70;99.90
23685;DHT22;12020;51.384;6.908;2023-04-06T07:12:52;5.80;99.90
23685;DHT22;12020;51.384;6.908;2023-04-06T07:15:18;5.90;99.90
23685;DHT22;12020;51.384;6.908;2023-04-06T07:17:43;5.90;99.90
23685;DHT22;12020;51.384;6.908;2023-04-06T07:20:12;6.00;99.90
23685;DHT22;12020;51.384;6.908;2023-04-06T07:22:39;6.10;99.90
23685;DHT22;12020;51.384;6.908;2023-04-06T07:25:05;6.20;99.90
23685;DHT22;12020;51.384;6.908;2023-04-06T07:27:31;6.30;99.90
23685;DHT22;12020;51.384;6.908;2023-04-06T07:29:57;6.40;99.90
23685;DHT22;12020;51.384;6.908;2023-04-06T07:32:23;6.50;99.90
23685;DHT22;12020;51.384;6.908;2023-04-06T07:34:49;6.60;99.90
23685;DHT22;12020;51.384;6.908;2023-04-06T07:37:14;6.70;99.90
23685;DHT22;12020;51.384;6.908;2023-04-06T07:39:40;6.90;99.90
23685;DHT22;12020;51.384;6.908;2023-04-06T07:42:06;7.10;99.90
23685;DHT22;12020;51.384;6.908;2023-04-06T07:44:32;7.30;99.90
23685;DHT22;12020;51.384;6.908;2023-04-06T07:46:57;7.50;99.90
23685;DHT22;12020;51.384;6.908;2023-04-06T07:49:23;7.80;99.90
23685;DHT22;12020;51.384;6.908;2023-04-06T07:51:49;8.00;99.90
23685;DHT22;12020;51.384;6.908;2023-04-06T07:54:15;8.20;99.90
23685;DHT22;12020;51.384;6.908;2023-04-06T07:56:40;8.40;99.90
23685;DHT22;12020;51.384;6.908;2023-04-06T07:59:06;8.60;99.90
23685;DHT22;12020;51.384;6.908;2023-04-06T08:01:32;8.70;99.90
23685;DHT22;12020;51.384;6.908;2023-04-06T08:03:58;8.80;99.90
23685;DHT22;12020;51.384;6.908;2023-04-06T08:06:25;9.00;99.90
23685;DHT22;12020;51.384;6.908;2023-04-06T08:08:51;9.20;99.90
23685;DHT22;12020;51.384;6.908;2023-04-06T08:11:17;9.30;99.90
23685;DHT22;12020;51.384;6.908;2023-04-06T08:13:43;9.50;99.90
23685;DHT22;12020;51.384;6.908;2023-04-06T08:16:10;9.70;99.90
23685;DHT22;12020;51.384;6.908;2023-04-06T08:18:36;9.90;99.90
23685;DHT22;12020;51.384;6.908;2023-04-06T08:21:02;10.10;99.90
23685;DHT22;12020;51.384;6.908;2023-04-06T08:23:27;10.30;99.90
23685;DHT22;12020;51.384;6.908;2023-04-06T08:25:53;10.50;99.90
23685;DHT22;12020;51.384;6.908;2023-04-06T08:28:20;10.60;99.90
23685;DHT22;12020;51.384;6.908;2023-04-06T08:30:46;10.60;99.90
23685;DHT22;12020;51.384;6.908;2023-04-06T08:33:12;10.60;99.90
23685;DHT22;12020;51.384;6.908;2023-04-06T08:35:38;10.70;99.90
23685;DHT22;12020;51.384;6.908;2023-04-06T08:38:04;10.70;99.90
23685;DHT22;12020;51.384;6.908;2023-04-06T08:40:35;10.70;99.90
23685;DHT22;12020;51.384;6.908;2023-04-06T08:43:02;10.80;99.90
23685;DHT22;12020;51.384;6.908;2023-04-06T08:45:29;10.80;99.90
23685;DHT22;12020;51.384;6.908;2023-04-06T08:47:56;10.90;99.90
23685;DHT22;12020;51.384;6.908;2023-04-06T08:50:24;11.00;99.90
23685;DHT22;12020;51.384;6.908;2023-04-06T08:52:50;11.10;99.90
23685;DHT22;12020;51.384;6.908;2023-04-06T08:55:16;11.30;99.90
23685;DHT22;12020;51.384;6.908;2023-04-06T08:57:42;11.50;99.90
23685;DHT22;12020;51.384;6.908;2023-04-06T09:00:10;11.60;99.90
23685;DHT22;12020;51.384;6.908;2023-04-06T09:02:39;11.80;99.90
23685;DHT22;12020;51.384;6.908;2023-04-06T09:05:09;11.90;99.40
23685;DHT22;12020;51.384;6.908;2023-04-06T09:07:38;12.00;98.80
23685;DHT22;12020;51.384;6.908;2023-04-06T09:10:05;12.20;99.30
23685;DHT22;12020;51.384;6.908;2023-04-06T09:12:31;12.40;99.30
23685;DHT22;12020;51.384;6.908;2023-04-06T09:14:58;12.60;99.90
23685;DHT22;12020;51.384;6.908;2023-04-06T09:17:27;12.80;98.60
23685;DHT22;12020;51.384;6.908;2023-04-06T09:19:53;12.90;96.80
23685;DHT22;12020;51.384;6.908;2023-04-06T09:22:19;13.10;96.40
23685;DHT22;12020;51.384;6.908;2023-04-06T09:24:54;13.20;95.60
23685;DHT22;12020;51.384;6.908;2023-04-06T09:27:37;13.30;95.70
23685;DHT22;12020;51.384;6.908;2023-04-06T09:30:06;13.40;94.60
23685;DHT22;12020;51.384;6.908;2023-04-06T09:32:43;13.50;93.80
23685;DHT22;12020;51.384;6.908;2023-04-06T09:35:10;13.60;94.00
23685;DHT22;12020;51.384;6.908;2023-04-06T09:37:36;13.70;95.40
23685;DHT22;12020;51.384;6.908;2023-04-06T09:40:06;13.90;94.80
23685;DHT22;12020;51.384;6.908;2023-04-06T09:42:33;14.00;93.90
23685;DHT22;12020;51.384;6.908;2023-04-06T09:44:59;14.00;91.40
23685;DHT22;12020;51.384;6.908;2023-04-06T09:47:25;13.90;91.80
23685;DHT22;12020;51.384;6.908;2023-04-06T09:49:56;13.80;92.60
23685;DHT22;12020;51.384;6.908;2023-04-06T09:52:31;13.90;92.60
23685;DHT22;12020;51.384;6.908;2023-04-06T09:55:01;13.80;91.70
23685;DHT22;12020;51.384;6.908;2023-04-06T10:00:09;13.60;92.40
23685;DHT22;12020;51.384;6.908;2023-04-06T10:02:52;13.60;92.10
23685;DHT22;12020;51.384;6.908;2023-04-06T10:07:57;13.40;92.80
23685;DHT22;12020;51.384;6.908;2023-04-06T10:10:25;13.40;91.90
23685;DHT22;12020;51.384;6.908;2023-04-06T10:12:51;13.40;91.70
23685;DHT22;12020;51.384;6.908;2023-04-06T10:15:18;13.40;93.30
23685;DHT22;12020;51.384;6.908;2023-04-06T10:17:44;13.30;91.70
23685;DHT22;12020;51.384;6.908;2023-04-06T10:20:23;13.40;92.40
23685;DHT22;12020;51.384;6.908;2023-04-06T10:22:59;13.50;92.50
23685;DHT22;12020;51.384;6.908;2023-04-06T10:25:31;13.60;92.80
23685;DHT22;12020;51.384;6.908;2023-04-06T10:30:28;13.80;92.70
23685;DHT22;12020;51.384;6.908;2023-04-06T10:32:54;14.00;92.80
23685;DHT22;12020;51.384;6.908;2023-04-06T10:35:20;14.10;93.30
23685;DHT22;12020;51.384;6.908;2023-04-06T10:37:47;14.30;93.10
23685;DHT22;12020;51.384;6.908;2023-04-06T10:40:24;14.40;93.00
23685;DHT22;12020;51.384;6.908;2023-04-06T10:42:52;14.50;92.20
23685;DHT22;12020;51.384;6.908;2023-04-06T10:45:25;14.50;92.20
23685;DHT22;12020;51.384;6.908;2023-04-06T10:47:55;14.60;92.10
23685;DHT22;12020;51.384;6.908;2023-04-06T10:50:22;14.60;92.20
23685;DHT22;12020;51.384;6.908;2023-04-06T10:53:01;14.60;93.60
23685;DHT22;12020;51.384;6.908;2023-04-06T10:55:28;14.70;93.30
23685;DHT22;12020;51.384;6.908;2023-04-06T10:57:54;14.80;91.70
23685;DHT22;12020;51.384;6.908;2023-04-06T11:00:20;14.80;91.60
23685;DHT22;12020;51.384;6.908;2023-04-06T11:02:46;14.80;91.50
23685;DHT22;12020;51.384;6.908;2023-04-06T11:05:13;14.80;91.20
23685;DHT22;12020;51.384;6.908;2023-04-06T11:07:40;14.90;91.40
23685;DHT22;12020;51.384;6.908;2023-04-06T11:10:07;14.90;92.10
23685;DHT22;12020;51.384;6.908;2023-04-06T11:12:33;14.80;90.50
23685;DHT22;12020;51.384;6.908;2023-04-06T11:15:03;14.70;91.40
23685;DHT22;12020;51.384;6.908;2023-04-06T11:17:34;14.70;90.80
23685;DHT22;12020;51.384;6.908;2023-04-06T11:20:03;14.50;89.20
23685;DHT22;12020;51.384;6.908;2023-04-06T11:22:30;14.40;89.20
23685;DHT22;12020;51.384;6.908;2023-04-06T11:25:06;14.30;90.80
23685;DHT22;12020;51.384;6.908;2023-04-06T11:27:33;14.20;90.80
23685;DHT22;12020;51.384;6.908;2023-04-06T11:30:00;14.20;92.30
23685;DHT22;12020;51.384;6.908;2023-04-06T11:32:26;14.30;91.00
23685;DHT22;12020;51.384;6.908;2023-04-06T11:34:52;14.20;91.10
23685;DHT22;12020;51.384;6.908;2023-04-06T11:37:18;14.10;91.70
23685;DHT22;12020;51.384;6.908;2023-04-06T11:42:09;14.10;92.20
23685;DHT22;12020;51.384;6.908;2023-04-06T11:44:37;14.10;92.40
23685;DHT22;12020;51.384;6.908;2023-04-06T11:47:07;14.10;92.60
23685;DHT22;12020;51.384;6.908;2023-04-06T11:49:36;14.10;92.70
23685;DHT22;12020;51.384;6.908;2023-04-06T11:52:02;14.10;92.80
23685;DHT22;12020;51.384;6.908;2023-04-06T11:54:31;14.20;93.20
23685;DHT22;12020;51.384;6.908;2023-04-06T11:56:57;14.20;92.60
23685;DHT22;12020;51.384;6.908;2023-04-06T11:59:23;14.20;93.40
23685;DHT22;12020;51.384;6.908;2023-04-06T12:01:48;14.20;91.90
23685;DHT22;12020;51.384;6.908;2023-04-06T12:04:15;14.20;92.10
23685;DHT22;12020;51.384;6.908;2023-04-06T12:06:43;14.20;93.20
23685;DHT22;12020;51.384;6.908;2023-04-06T12:09:08;14.20;93.70
23685;DHT22;12020;51.384;6.908;2023-04-06T12:11:34;14.20;93.60
23685;DHT22;12020;51.384;6.908;2023-04-06T12:14:00;14.30;94.30
23685;DHT22;12020;51.384;6.908;2023-04-06T12:16:27;14.20;94.40
23685;DHT22;12020;51.384;6.908;2023-04-06T12:18:52;14.20;94.50
23685;DHT22;12020;51.384;6.908;2023-04-06T12:21:18;14.10;94.30
23685;DHT22;12020;51.384;6.908;2023-04-06T12:23:45;14.00;94.50
23685;DHT22;12020;51.384;6.908;2023-04-06T12:26:10;14.00;94.70
23685;DHT22;12020;51.384;6.908;2023-04-06T12:28:36;14.00;94.50
23685;DHT22;12020;51.384;6.908;2023-04-06T12:31:02;14.00;95.10
23685;DHT22;12020;51.384;6.908;2023-04-06T12:33:27;14.00;95.70
23685;DHT22;12020;51.384;6.908;2023-04-06T12:35:53;14.00;95.90
23685;DHT22;12020;51.384;6.908;2023-04-06T12:38:19;14.10;96.60
23685;DHT22;12020;51.384;6.908;2023-04-06T12:40:45;14.10;97.20
23685;DHT22;12020;51.384;6.908;2023-04-06T12:43:11;14.20;97.70
23685;DHT22;12020;51.384;6.908;2023-04-06T12:45:39;14.20;96.40
23685;DHT22;12020;51.384;6.908;2023-04-06T12:48:06;14.10;96.90
23685;DHT22;12020;51.384;6.908;2023-04-06T12:50:31;14.10;96.90
23685;DHT22;12020;51.384;6.908;2023-04-06T12:52:57;14.10;96.80
23685;DHT22;12020;51.384;6.908;2023-04-06T12:55:23;14.00;96.80
23685;DHT22;12020;51.384;6.908;2023-04-06T12:57:48;14.00;97.20
23685;DHT22;12020;51.384;6.908;2023-04-06T13:00:15;14.00;96.80
23685;DHT22;12020;51.384;6.908;2023-04-06T13:02:41;14.00;97.50
23685;DHT22;12020;51.384;6.908;2023-04-06T13:05:12;13.90;97.40
23685;DHT22;12020;51.384;6.908;2023-04-06T13:07:38;13.90;97.50
23685;DHT22;12020;51.384;6.908;2023-04-06T13:10:04;13.80;97.10
23685;DHT22;12020;51.384;6.908;2023-04-06T13:12:30;13.80;97.10
23685;DHT22;12020;51.384;6.908;2023-04-06T13:14:56;13.80;97.50
23685;DHT22;12020;51.384;6.908;2023-04-06T13:17:21;13.80;97.20
23685;DHT22;12020;51.384;6.908;2023-04-06T13:19:47;13.80;96.90
23685;DHT22;12020;51.384;6.908;2023-04-06T13:22:13;13.80;96.70
23685;DHT22;12020;51.384;6.908;2023-04-06T13:24:39;13.70;96.80
23685;DHT22;12020;51.384;6.908;2023-04-06T13:27:05;13.70;97.20
23685;DHT22;12020;51.384;6.908;2023-04-06T13:29:31;13.80;97.40
23685;DHT22;12020;51.384;6.908;2023-04-06T13:31:56;13.70;97.30
23685;DHT22;12020;51.384;6.908;2023-04-06T13:34:22;13.60;97.00
23685;DHT22;12020;51.384;6.908;2023-04-06T13:36:48;13.60;97.50
23685;DHT22;12020;51.384;6.908;2023-04-06T13:39:13;13.60;97.60
23685;DHT22;12020;51.384;6.908;2023-04-06T13:41:39;13.60;97.40
23685;DHT22;12020;51.384;6.908;2023-04-06T13:44:05;13.60;98.30
23685;DHT22;12020;51.384;6.908;2023-04-06T13:46:31;13.60;98.40
23685;DHT22;12020;51.384;6.908;2023-04-06T13:48:57;13.60;98.50
23685;DHT22;12020;51.384;6.908;2023-04-06T13:51:23;13.60;98.80
23685;DHT22;12020;51.384;6.908;2023-04-06T13:53:48;13.50;98.50
23685;DHT22;12020;51.384;6.908;2023-04-06T13:56:17;13.50;98.90
23685;DHT22;12020;51.384;6.908;2023-04-06T13:58:43;13.40;98.90
23685;DHT22;12020;51.384;6.908;2023-04-06T14:01:09;13.40;99.30
23685;DHT22;12020;51.384;6.908;2023-04-06T14:03:35;13.40;99.90
23685;DHT22;12020;51.384;6.908;2023-04-06T14:06:09;13.30;99.60
23685;DHT22;12020;51.384;6.908;2023-04-06T14:08:35;13.30;99.80
23685;DHT22;12020;51.384;6.908;2023-04-06T14:11:00;13.30;99.90
23685;DHT22;12020;51.384;6.908;2023-04-06T14:13:26;13.30;99.90
23685;DHT22;12020;51.384;6.908;2023-04-06T14:15:53;13.30;99.90
23685;DHT22;12020;51.384;6.908;2023-04-06T14:18:19;13.30;99.90
23685;DHT22;12020;51.384;6.908;2023-04-06T14:20:45;13.20;99.90
23685;DHT22;12020;51.384;6.908;2023-04-06T14:23:10;13.20;99.90
23685;DHT22;12020;51.384;6.908;2023-04-06T14:25:36;13.20;99.90
23685;DHT22;12020;51.384;6.908;2023-04-06T14:28:02;13.20;99.90
23685;DHT22;12020;51.384;6.908;2023-04-06T14:30:30;13.10;99.90
23685;DHT22;12020;51.384;6.908;2023-04-06T14:32:58;13.10;99.90
23685;DHT22;12020;51.384;6.908;2023-04-06T14:35:25;13.10;99.90
23685;DHT22;12020;51.384;6.908;2023-04-06T14:37:53;13.10;99.90
23685;DHT22;12020;51.384;6.908;2023-04-06T14:40:18;13.10;99.90
23685;DHT22;12020;51.384;6.908;2023-04-06T14:42:44;13.10;99.90
23685;DHT22;12020;51.384;6.908;2023-04-06T14:45:10;13.00;99.90
23685;DHT22;12020;51.384;6.908;2023-04-06T14:47:36;13.00;99.90
23685;DHT22;12020;51.384;6.908;2023-04-06T14:50:01;13.00;99.90
23685;DHT22;12020;51.384;6.908;2023-04-06T14:52:27;12.90;99.90
23685;DHT22;12020;51.384;6.908;2023-04-06T14:54:53;12.90;99.90
23685;DHT22;12020;51.384;6.908;2023-04-06T14:57:18;12.80;99.90
23685;DHT22;12020;51.384;6.908;2023-04-06T14:59:44;12.80;99.90
23685;DHT22;12020;51.384;6.908;2023-04-06T15:02:09;12.70;99.90
23685;DHT22;12020;51.384;6.908;2023-04-06T15:04:36;12.70;99.90
23685;DHT22;12020;51.384;6.908;2023-04-06T15:07:02;12.60;99.90
23685;DHT22;12020;51.384;6.908;2023-04-06T15:09:27;12.50;99.90
23685;DHT22;12020;51.384;6.908;2023-04-06T15:11:53;12.50;99.90
23685;DHT22;12020;51.384;6.908;2023-04-06T15:14:18;12.50;99.90
23685;DHT22;12020;51.384;6.908;2023-04-06T15:16:44;12.50;99.90
23685;DHT22;12020;51.384;6.908;2023-04-06T15:19:10;12.50;99.90
23685;DHT22;12020;51.384;6.908;2023-04-06T15:21:36;12.40;99.90
23685;DHT22;12020;51.384;6.908;2023-04-06T15:24:01;12.30;99.90
23685;DHT22;12020;51.384;6.908;2023-04-06T15:26:29;12.20;99.90
23685;DHT22;12020;51.384;6.908;2023-04-06T15:28:55;12.10;99.90
23685;DHT22;12020;51.384;6.908;2023-04-06T15:31:20;12.00;99.90
23685;DHT22;12020;51.384;6.908;2023-04-06T15:33:46;11.90;99.90
23685;DHT22;12020;51.384;6.908;2023-04-06T15:36:28;11.90;99.90
23685;DHT22;12020;51.384;6.908;2023-04-06T15:38:56;11.70;99.90
23685;DHT22;12020;51.384;6.908;2023-04-06T15:41:22;11.60;99.90
23685;DHT22;12020;51.384;6.908;2023-04-06T15:43:48;11.60;99.90
23685;DHT22;12020;51.384;6.908;2023-04-06T15:46:16;11.50;99.90